PWSweather.com
Personal Weather Stations
Station Observations
OBSERWACJEMETEO
Skórowo, SkorowoPL 76-230

SkórowoSkorowoPL 76-230

Lat: 54.5030556, Lon: 17.5277777

Elevation: 77

Station Type: WH2080

http://obserwacjemeteo.eu/

High Low Average
Temperature 92.3°F33.5°C 64.8°F18.2°C 76.1°F24.5°C
Dew Point 66.3°F19.1°C 57.1°F13.9°C 61.2°F16.2°C
Winds 8.3 mph 13.4 kmh Calm Calm 3.0 mph E4.8 kmh E
Wind Gusts 14.5 mph23.3 kmh -- 6.0 mph9.7 kmh
Humidity 99% 32% 65%
Pressure 29.95 in1014.2 mb 29.75 in1007.5 mb -
Precipitation 3.25 in82.6 mm - -
Hour Temp Dew Point Humidity Winds Wind Gusts Pressure Precip Precip Rate Daily Precip Total
12:00 AM 73.2°F22.9°C 59.0°F15.0°C 61% 2.2 mph N3.5 kmh N 7.6 mph12.2 kmh 29.97 in1014.9 mb 0.00 in0.0 mm 0.00 in0.0 mm 0.00 in0.0 mm
12:10 AM 73.4°F23.0°C 59.2°F15.1°C 61% 3.1 mph N5.0 kmh N 6.9 mph11.1 kmh 29.96 in1014.6 mb 0.00 in0.0 mm 0.00 in0.0 mm 0.00 in0.0 mm
12:20 AM 73.4°F23.0°C 58.7°F14.8°C 60% 3.1 mph NW5.0 kmh NW 7.6 mph12.2 kmh 29.95 in1014.2 mb 0.00 in0.0 mm 0.00 in0.0 mm 0.00 in0.0 mm
12:30 AM 73.8°F23.2°C 59.0°F15.0°C 60% 5.4 mph NE8.7 kmh NE 8.3 mph13.4 kmh 29.95 in1014.2 mb 0.00 in0.0 mm 0.00 in0.0 mm 0.00 in0.0 mm
12:40 AM 73.8°F23.2°C 59.0°F15.0°C 60% 3.8 mph E6.1 kmh E 9.8 mph15.8 kmh 29.95 in1014.2 mb 0.00 in0.0 mm 0.00 in0.0 mm 0.00 in0.0 mm
12:50 AM 73.6°F23.1°C 58.9°F14.9°C 60% 3.8 mph NE6.1 kmh NE 7.6 mph12.2 kmh 29.95 in1014.2 mb 0.00 in0.0 mm 0.00 in0.0 mm 0.00 in0.0 mm
01:00 AM 73.6°F23.1°C 58.9°F14.9°C 60% 2.2 mph NE3.5 kmh NE 7.6 mph12.2 kmh 29.95 in1014.2 mb 0.00 in0.0 mm 0.00 in0.0 mm 0.00 in0.0 mm
01:10 AM 73.2°F22.9°C 58.5°F14.7°C 60% 3.1 mph NE5.0 kmh NE 7.6 mph12.2 kmh 29.94 in1013.9 mb 0.00 in0.0 mm 0.00 in0.0 mm 0.00 in0.0 mm
01:20 AM 73.0°F22.8°C 58.4°F14.7°C 60% 4.5 mph NE7.2 kmh NE 8.3 mph13.4 kmh 29.94 in1013.9 mb 0.00 in0.0 mm 0.00 in0.0 mm 0.00 in0.0 mm
01:30 AM 72.9°F22.7°C 58.7°F14.8°C 61% 4.5 mph N7.2 kmh N 8.3 mph13.4 kmh 29.94 in1013.9 mb 0.00 in0.0 mm 0.00 in0.0 mm 0.00 in0.0 mm
01:40 AM 72.7°F22.6°C 58.5°F14.7°C 61% 4.5 mph NE7.2 kmh NE 7.6 mph12.2 kmh 29.93 in1013.5 mb 0.00 in0.0 mm 0.00 in0.0 mm 0.00 in0.0 mm
01:50 AM 72.5°F22.5°C 58.3°F14.6°C 61% 4.5 mph ENE7.2 kmh ENE 7.6 mph12.2 kmh 29.94 in1013.9 mb 0.00 in0.0 mm 0.00 in0.0 mm 0.00 in0.0 mm
02:00 AM 72.1°F22.3°C 59.3°F15.2°C 64% 3.1 mph NE5.0 kmh NE 9.2 mph14.8 kmh 29.94 in1013.9 mb 0.00 in0.0 mm 0.00 in0.0 mm 0.00 in0.0 mm
02:10 AM 72.1°F22.3°C 59.8°F15.4°C 65% 2.2 mph E3.5 kmh E 8.3 mph13.4 kmh 29.93 in1013.5 mb 0.00 in0.0 mm 0.00 in0.0 mm 0.00 in0.0 mm
02:20 AM 72.0°F22.2°C 59.6°F15.3°C 65% 3.8 mph N6.1 kmh N 9.2 mph14.8 kmh 29.93 in1013.5 mb 0.00 in0.0 mm 0.00 in0.0 mm 0.00 in0.0 mm
02:30 AM 72.0°F22.2°C 59.1°F15.1°C 64% 3.8 mph NE6.1 kmh NE 8.3 mph13.4 kmh 29.93 in1013.5 mb 0.00 in0.0 mm 0.00 in0.0 mm 0.00 in0.0 mm
02:40 AM 72.0°F22.2°C 59.1°F15.1°C 64% 3.8 mph NE6.1 kmh NE 8.3 mph13.4 kmh 29.93 in1013.5 mb 0.00 in0.0 mm 0.00 in0.0 mm 0.00 in0.0 mm
02:50 AM 71.8°F22.1°C 59.4°F15.2°C 65% 3.8 mph NE6.1 kmh NE 9.2 mph14.8 kmh 29.93 in1013.5 mb 0.00 in0.0 mm 0.00 in0.0 mm 0.00 in0.0 mm
03:00 AM 71.8°F22.1°C 59.4°F15.2°C 65% 4.5 mph ENE7.2 kmh ENE 7.6 mph12.2 kmh 29.92 in1013.2 mb 0.00 in0.0 mm 0.00 in0.0 mm 0.00 in0.0 mm
03:10 AM 71.6°F22.0°C 59.2°F15.1°C 65% 3.1 mph E5.0 kmh E 7.6 mph12.2 kmh 29.92 in1013.2 mb 0.00 in0.0 mm 0.00 in0.0 mm 0.00 in0.0 mm
03:20 AM 71.4°F21.9°C 59.1°F15.1°C 65% 4.5 mph ENE7.2 kmh ENE 8.3 mph13.4 kmh 29.92 in1013.2 mb 0.00 in0.0 mm 0.00 in0.0 mm 0.00 in0.0 mm
03:30 AM 71.4°F21.9°C 59.1°F15.1°C 65% 2.2 mph E3.5 kmh E 7.6 mph12.2 kmh 29.92 in1013.2 mb 0.00 in0.0 mm 0.00 in0.0 mm 0.00 in0.0 mm
03:40 AM 71.6°F22.0°C 58.8°F14.9°C 64% 3.1 mph NNE5.0 kmh NNE 8.3 mph13.4 kmh 29.91 in1012.9 mb 0.00 in0.0 mm 0.00 in0.0 mm 0.00 in0.0 mm
03:50 AM 71.4°F21.9°C 58.6°F14.8°C 64% 4.5 mph NNE7.2 kmh NNE 6.9 mph11.1 kmh 29.91 in1012.9 mb 0.00 in0.0 mm 0.00 in0.0 mm 0.00 in0.0 mm
04:00 AM 71.2°F21.8°C 58.9°F14.9°C 65% 3.8 mph N6.1 kmh N 7.6 mph12.2 kmh 29.91 in1012.9 mb 0.00 in0.0 mm 0.00 in0.0 mm 0.00 in0.0 mm
04:10 AM 71.2°F21.8°C 58.9°F14.9°C 65% 1.6 mph ENE2.6 kmh ENE 8.3 mph13.4 kmh 29.90 in1012.5 mb 0.00 in0.0 mm 0.00 in0.0 mm 0.00 in0.0 mm
04:20 AM 70.7°F21.5°C 58.4°F14.7°C 65% 3.1 mph NE5.0 kmh NE 6.0 mph9.7 kmh 29.90 in1012.5 mb 0.00 in0.0 mm 0.00 in0.0 mm 0.00 in0.0 mm
04:30 AM 70.5°F21.4°C 58.6°F14.8°C 66% 3.1 mph NE5.0 kmh NE 6.0 mph9.7 kmh 29.89 in1012.2 mb 0.00 in0.0 mm 0.00 in0.0 mm 0.00 in0.0 mm
04:40 AM 70.3°F21.3°C 58.5°F14.7°C 66% 3.8 mph N6.1 kmh N 7.6 mph12.2 kmh 29.89 in1012.2 mb 0.00 in0.0 mm 0.00 in0.0 mm 0.00 in0.0 mm
04:50 AM 70.2°F21.2°C 58.3°F14.6°C 66% 2.2 mph N3.5 kmh N 6.0 mph9.7 kmh 29.89 in1012.2 mb 0.00 in0.0 mm 0.00 in0.0 mm 0.00 in0.0 mm
05:00 AM 70.0°F21.1°C 58.1°F14.5°C 66% 2.2 mph N3.5 kmh N 6.0 mph9.7 kmh 29.89 in1012.2 mb 0.00 in0.0 mm 0.00 in0.0 mm 0.00 in0.0 mm
05:10 AM 69.6°F20.9°C 58.2°F14.6°C 67% 2.2 mph WNW3.5 kmh WNW 4.5 mph7.2 kmh 29.89 in1012.2 mb 0.00 in0.0 mm 0.00 in0.0 mm 0.00 in0.0 mm
05:20 AM 69.4°F20.8°C 58.0°F14.4°C 67% 2.2 mph WNW3.5 kmh WNW 6.9 mph11.1 kmh 29.89 in1012.2 mb 0.00 in0.0 mm 0.00 in0.0 mm 0.00 in0.0 mm
05:30 AM 69.3°F20.7°C 58.3°F14.6°C 68% 3.1 mph SE5.0 kmh SE 5.4 mph8.7 kmh 29.88 in1011.9 mb 0.00 in0.0 mm 0.00 in0.0 mm 0.00 in0.0 mm
05:40 AM 69.4°F20.8°C 58.0°F14.4°C 67% 3.1 mph N5.0 kmh N 7.6 mph12.2 kmh 29.88 in1011.9 mb 0.00 in0.0 mm 0.00 in0.0 mm 0.00 in0.0 mm
05:50 AM 69.6°F20.9°C 58.2°F14.6°C 67% 3.1 mph NNE5.0 kmh NNE 6.0 mph9.7 kmh 29.87 in1011.5 mb 0.00 in0.0 mm 0.00 in0.0 mm 0.00 in0.0 mm
06:00 AM 70.0°F21.1°C 58.1°F14.5°C 66% 3.1 mph N5.0 kmh N 6.0 mph9.7 kmh 29.88 in1011.9 mb 0.00 in0.0 mm 0.00 in0.0 mm 0.00 in0.0 mm
06:10 AM 70.2°F21.2°C 57.9°F14.4°C 65% 3.8 mph NE6.1 kmh NE 8.3 mph13.4 kmh 29.87 in1011.5 mb 0.00 in0.0 mm 0.00 in0.0 mm 0.00 in0.0 mm
06:20 AM 70.5°F21.4°C 58.2°F14.6°C 65% 3.1 mph NNW5.0 kmh NNW 6.9 mph11.1 kmh 29.86 in1011.2 mb 0.00 in0.0 mm 0.00 in0.0 mm 0.00 in0.0 mm
06:30 AM 70.9°F21.6°C 58.1°F14.5°C 64% 2.2 mph NE3.5 kmh NE 8.3 mph13.4 kmh 29.87 in1011.5 mb 0.00 in0.0 mm 0.00 in0.0 mm 0.00 in0.0 mm
06:40 AM 71.2°F21.8°C 58.0°F14.4°C 63% 4.5 mph NNE7.2 kmh NNE 8.3 mph13.4 kmh 29.86 in1011.2 mb 0.00 in0.0 mm 0.00 in0.0 mm 0.00 in0.0 mm
06:50 AM 72.3°F22.4°C 58.6°F14.8°C 62% 3.8 mph ESE6.1 kmh ESE 8.3 mph13.4 kmh 29.87 in1011.5 mb 0.00 in0.0 mm 0.00 in0.0 mm 0.00 in0.0 mm
07:00 AM 73.6°F23.1°C 57.9°F14.4°C 58% 4.5 mph ENE7.2 kmh ENE 8.3 mph13.4 kmh 29.86 in1011.2 mb 0.00 in0.0 mm 0.00 in0.0 mm 0.00 in0.0 mm
07:10 AM 74.5°F23.6°C 58.3°F14.6°C 57% 3.1 mph NE5.0 kmh NE 8.3 mph13.4 kmh 29.86 in1011.2 mb 0.00 in0.0 mm 0.00 in0.0 mm 0.00 in0.0 mm
07:20 AM 75.2°F24.0°C 58.5°F14.7°C 56% 3.8 mph NE6.1 kmh NE 8.3 mph13.4 kmh 29.86 in1011.2 mb 0.00 in0.0 mm 0.00 in0.0 mm 0.00 in0.0 mm
07:30 AM 75.6°F24.2°C 58.3°F14.6°C 55% 4.5 mph N7.2 kmh N 10.7 mph17.2 kmh 29.86 in1011.2 mb 0.00 in0.0 mm 0.00 in0.0 mm 0.00 in0.0 mm
07:40 AM 76.1°F24.5°C 58.3°F14.6°C 54% 3.8 mph NNE6.1 kmh NNE 8.3 mph13.4 kmh 29.85 in1010.8 mb 0.00 in0.0 mm 0.00 in0.0 mm 0.00 in0.0 mm
07:50 AM 77.0°F25.0°C 59.1°F15.1°C 54% 8.3 mph N13.4 kmh N 14.5 mph23.3 kmh 29.86 in1011.2 mb 0.00 in0.0 mm 0.00 in0.0 mm 0.00 in0.0 mm
08:00 AM 77.9°F25.5°C 59.4°F15.2°C 53% 4.5 mph NE7.2 kmh NE 14.5 mph23.3 kmh 29.84 in1010.5 mb 0.00 in0.0 mm 0.00 in0.0 mm 0.00 in0.0 mm
08:10 AM 78.4°F25.8°C 59.4°F15.2°C 52% 5.4 mph NE8.7 kmh NE 9.8 mph15.8 kmh 29.85 in1010.8 mb 0.00 in0.0 mm 0.00 in0.0 mm 0.00 in0.0 mm
08:20 AM 78.8°F26.0°C 59.7°F15.4°C 52% 4.5 mph E7.2 kmh E 10.7 mph17.2 kmh 29.85 in1010.8 mb 0.00 in0.0 mm 0.00 in0.0 mm 0.00 in0.0 mm
08:30 AM 79.7°F26.5°C 60.6°F15.9°C 52% 3.1 mph NE5.0 kmh NE 9.8 mph15.8 kmh 29.85 in1010.8 mb 0.00 in0.0 mm 0.00 in0.0 mm 0.00 in0.0 mm
08:40 AM 80.8°F27.1°C 61.0°F16.1°C 51% 5.4 mph E8.7 kmh E 10.7 mph17.2 kmh 29.85 in1010.8 mb 0.00 in0.0 mm 0.00 in0.0 mm 0.00 in0.0 mm
08:50 AM 80.6°F27.0°C 60.8°F16.0°C 51% 6.0 mph N9.7 kmh N 11.4 mph18.3 kmh 29.84 in1010.5 mb 0.00 in0.0 mm 0.00 in0.0 mm 0.00 in0.0 mm
09:00 AM 81.1°F27.3°C 61.3°F16.3°C 51% 5.4 mph NE8.7 kmh NE 9.8 mph15.8 kmh 29.84 in1010.5 mb 0.00 in0.0 mm 0.00 in0.0 mm 0.00 in0.0 mm
09:10 AM 82.2°F27.9°C 60.0°F15.6°C 47% 3.8 mph N6.1 kmh N 8.3 mph13.4 kmh 29.84 in1010.5 mb 0.00 in0.0 mm 0.00 in0.0 mm 0.00 in0.0 mm
09:20 AM 83.1°F28.4°C 60.2°F15.7°C 46% 4.5 mph W7.2 kmh W 9.2 mph14.8 kmh 29.84 in1010.5 mb 0.00 in0.0 mm 0.00 in0.0 mm 0.00 in0.0 mm
09:30 AM 84.0°F28.9°C 59.2°F15.1°C 43% 4.5 mph SE7.2 kmh SE 6.9 mph11.1 kmh 29.84 in1010.5 mb 0.00 in0.0 mm 0.00 in0.0 mm 0.00 in0.0 mm
09:40 AM 84.2°F29.0°C 60.0°F15.6°C 44% 3.8 mph N6.1 kmh N 6.9 mph11.1 kmh 29.84 in1010.5 mb 0.00 in0.0 mm 0.00 in0.0 mm 0.00 in0.0 mm
09:50 AM 84.7°F29.3°C 59.8°F15.4°C 43% 5.4 mph SE8.7 kmh SE 10.7 mph17.2 kmh 29.83 in1010.2 mb 0.00 in0.0 mm 0.00 in0.0 mm 0.00 in0.0 mm
10:00 AM 85.3°F29.6°C 60.3°F15.7°C 43% 3.8 mph ENE6.1 kmh ENE 10.7 mph17.2 kmh 29.83 in1010.2 mb 0.00 in0.0 mm 0.00 in0.0 mm 0.00 in0.0 mm
10:10 AM 85.8°F29.9°C 60.1°F15.6°C 42% 3.1 mph NNE5.0 kmh NNE 6.9 mph11.1 kmh 29.82 in1009.8 mb 0.00 in0.0 mm 0.00 in0.0 mm 0.00 in0.0 mm
10:20 AM 87.1°F30.6°C 61.3°F16.3°C 42% 3.8 mph WSW6.1 kmh WSW 7.6 mph12.2 kmh 29.82 in1009.8 mb 0.00 in0.0 mm 0.00 in0.0 mm 0.00 in0.0 mm
10:30 AM 86.9°F30.5°C 60.4°F15.8°C 41% 3.8 mph E6.1 kmh E 9.2 mph14.8 kmh 29.82 in1009.8 mb 0.00 in0.0 mm 0.00 in0.0 mm 0.00 in0.0 mm
10:40 AM 87.6°F30.9°C 61.1°F16.2°C 41% 4.5 mph NE7.2 kmh NE 6.9 mph11.1 kmh 29.82 in1009.8 mb 0.00 in0.0 mm 0.00 in0.0 mm 0.00 in0.0 mm
10:50 AM 87.8°F31.0°C 61.2°F16.2°C 41% 4.5 mph NE7.2 kmh NE 8.3 mph13.4 kmh 29.81 in1009.5 mb 0.00 in0.0 mm 0.00 in0.0 mm 0.00 in0.0 mm
11:00 AM 88.3°F31.3°C 61.7°F16.5°C 41% 3.1 mph NE5.0 kmh NE 8.3 mph13.4 kmh 29.80 in1009.1 mb 0.00 in0.0 mm 0.00 in0.0 mm 0.00 in0.0 mm
11:10 AM 89.1°F31.7°C 61.7°F16.5°C 40% 3.8 mph E6.1 kmh E 6.0 mph9.7 kmh 29.81 in1009.5 mb 0.00 in0.0 mm 0.00 in0.0 mm 0.00 in0.0 mm
11:20 AM 89.1°F31.7°C 61.7°F16.5°C 40% 5.4 mph N8.7 kmh N 8.3 mph13.4 kmh 29.81 in1009.5 mb 0.00 in0.0 mm 0.00 in0.0 mm 0.00 in0.0 mm
11:30 AM 89.8°F32.1°C 63.0°F17.2°C 41% 3.8 mph NNE6.1 kmh NNE 7.6 mph12.2 kmh 29.80 in1009.1 mb 0.00 in0.0 mm 0.00 in0.0 mm 0.00 in0.0 mm
11:40 AM 89.8°F32.1°C 62.3°F16.8°C 40% 6.0 mph NE9.7 kmh NE 8.3 mph13.4 kmh 29.80 in1009.1 mb 0.00 in0.0 mm 0.00 in0.0 mm 0.00 in0.0 mm
11:50 AM 89.2°F31.8°C 61.8°F16.6°C 40% 3.8 mph ENE6.1 kmh ENE 9.8 mph15.8 kmh 29.80 in1009.1 mb 0.00 in0.0 mm 0.00 in0.0 mm 0.00 in0.0 mm
12:00 PM 89.8°F32.1°C 61.6°F16.4°C 39% 3.8 mph NNE6.1 kmh NNE 6.9 mph11.1 kmh 29.80 in1009.1 mb 0.00 in0.0 mm 0.00 in0.0 mm 0.00 in0.0 mm
12:10 PM 89.8°F32.1°C 60.8°F16.0°C 38% 5.4 mph NNE8.7 kmh NNE 10.7 mph17.2 kmh 29.79 in1008.8 mb 0.00 in0.0 mm 0.00 in0.0 mm 0.00 in0.0 mm
12:20 PM 90.0°F32.2°C 61.0°F16.1°C 38% 3.8 mph ENE6.1 kmh ENE 9.2 mph14.8 kmh 29.79 in1008.8 mb 0.00 in0.0 mm 0.00 in0.0 mm 0.00 in0.0 mm
12:30 PM 90.7°F32.6°C 58.5°F14.7°C 34% 4.5 mph E7.2 kmh E 8.3 mph13.4 kmh 29.79 in1008.8 mb 0.00 in0.0 mm 0.00 in0.0 mm 0.00 in0.0 mm
12:40 PM 90.7°F32.6°C 57.7°F14.3°C 33% 4.5 mph NE7.2 kmh NE 8.3 mph13.4 kmh 29.79 in1008.8 mb 0.00 in0.0 mm 0.00 in0.0 mm 0.00 in0.0 mm
12:50 PM 90.5°F32.5°C 57.5°F14.2°C 33% 3.8 mph NE6.1 kmh NE 10.7 mph17.2 kmh 29.78 in1008.5 mb 0.00 in0.0 mm 0.00 in0.0 mm 0.00 in0.0 mm
01:00 PM 91.2°F32.9°C 58.2°F14.6°C 33% 5.4 mph E8.7 kmh E 9.2 mph14.8 kmh 29.79 in1008.8 mb 0.00 in0.0 mm 0.00 in0.0 mm 0.00 in0.0 mm
01:10 PM 90.7°F32.6°C 57.7°F14.3°C 33% 4.5 mph ENE7.2 kmh ENE 10.7 mph17.2 kmh 29.78 in1008.5 mb 0.00 in0.0 mm 0.00 in0.0 mm 0.00 in0.0 mm
01:20 PM 90.9°F32.7°C 57.8°F14.3°C 33% 4.5 mph E7.2 kmh E 9.8 mph15.8 kmh 29.78 in1008.5 mb 0.00 in0.0 mm 0.00 in0.0 mm 0.00 in0.0 mm
01:30 PM 91.6°F33.1°C 57.6°F14.2°C 32% 3.8 mph ENE6.1 kmh ENE 8.3 mph13.4 kmh 29.78 in1008.5 mb 0.00 in0.0 mm 0.00 in0.0 mm 0.00 in0.0 mm
01:40 PM 91.4°F33.0°C 57.5°F14.2°C 32% 6.0 mph NE9.7 kmh NE 9.8 mph15.8 kmh 29.77 in1008.1 mb 0.00 in0.0 mm 0.00 in0.0 mm 0.00 in0.0 mm
01:50 PM 91.2°F32.9°C 57.3°F14.1°C 32% 6.0 mph NE9.7 kmh NE 9.8 mph15.8 kmh 29.78 in1008.5 mb 0.00 in0.0 mm 0.00 in0.0 mm 0.00 in0.0 mm
02:00 PM 91.4°F33.0°C 57.5°F14.2°C 32% 5.4 mph ENE8.7 kmh ENE 7.6 mph12.2 kmh 29.77 in1008.1 mb 0.00 in0.0 mm 0.00 in0.0 mm 0.00 in0.0 mm
02:10 PM 91.8°F33.2°C 57.8°F14.3°C 32% 2.2 mph ESE3.5 kmh ESE 7.6 mph12.2 kmh 29.77 in1008.1 mb 0.00 in0.0 mm 0.00 in0.0 mm 0.00 in0.0 mm
02:20 PM 92.3°F33.5°C 58.2°F14.6°C 32% 3.8 mph ENE6.1 kmh ENE 7.6 mph12.2 kmh 29.77 in1008.1 mb 0.00 in0.0 mm 0.00 in0.0 mm 0.00 in0.0 mm
02:30 PM 92.1°F33.4°C 58.1°F14.5°C 32% 3.8 mph E6.1 kmh E 9.8 mph15.8 kmh 29.76 in1007.8 mb 0.00 in0.0 mm 0.00 in0.0 mm 0.00 in0.0 mm
02:40 PM 91.4°F33.0°C 57.5°F14.2°C 32% 3.8 mph NE6.1 kmh NE 9.2 mph14.8 kmh 29.77 in1008.1 mb 0.00 in0.0 mm 0.00 in0.0 mm 0.00 in0.0 mm
02:50 PM 91.2°F32.9°C 58.2°F14.6°C 33% 2.2 mph NNE3.5 kmh NNE 7.6 mph12.2 kmh 29.77 in1008.1 mb 0.00 in0.0 mm 0.00 in0.0 mm 0.00 in0.0 mm
03:00 PM 91.0°F32.8°C 57.1°F13.9°C 32% 4.5 mph E7.2 kmh E 7.6 mph12.2 kmh 29.76 in1007.8 mb 0.00 in0.0 mm 0.00 in0.0 mm 0.00 in0.0 mm
03:10 PM 91.0°F32.8°C 58.0°F14.4°C 33% 3.8 mph NE6.1 kmh NE 6.9 mph11.1 kmh 29.77 in1008.1 mb 0.00 in0.0 mm 0.00 in0.0 mm 0.00 in0.0 mm
03:20 PM 90.3°F32.4°C 60.6°F15.9°C 37% 2.2 mph NE3.5 kmh NE 9.2 mph14.8 kmh 29.76 in1007.8 mb 0.00 in0.0 mm 0.00 in0.0 mm 0.00 in0.0 mm
03:30 PM 90.3°F32.4°C 62.1°F16.7°C 39% 2.2 mph ENE3.5 kmh ENE 6.0 mph9.7 kmh 29.76 in1007.8 mb 0.00 in0.0 mm 0.00 in0.0 mm 0.00 in0.0 mm
03:40 PM 89.2°F31.8°C 61.8°F16.6°C 40% 1.6 mph E2.6 kmh E 3.8 mph6.1 kmh 29.76 in1007.8 mb 0.00 in0.0 mm 0.00 in0.0 mm 0.00 in0.0 mm
03:50 PM 88.0°F31.1°C 60.7°F15.9°C 40% 3.8 mph N6.1 kmh N 6.0 mph9.7 kmh 29.76 in1007.8 mb 0.00 in0.0 mm 0.00 in0.0 mm 0.00 in0.0 mm
04:00 PM 86.7°F30.4°C 60.3°F15.7°C 41% 1.6 mph ENE2.6 kmh ENE 5.4 mph8.7 kmh 29.75 in1007.5 mb 0.00 in0.0 mm 0.00 in0.0 mm 0.00 in0.0 mm
04:10 PM 81.9°F27.7°C 61.4°F16.3°C 50% 3.8 mph SW6.1 kmh SW 5.4 mph8.7 kmh 29.76 in1007.8 mb 0.00 in0.0 mm 0.00 in0.0 mm 0.00 in0.0 mm
04:20 PM 76.5°F24.7°C 62.1°F16.7°C 61% 3.1 mph S5.0 kmh S 5.4 mph8.7 kmh 29.77 in1008.1 mb 0.00 in0.0 mm 0.00 in0.0 mm 0.00 in0.0 mm
04:30 PM 75.4°F24.1°C 62.8°F17.1°C 65% 2.2 mph S3.5 kmh S 3.8 mph6.1 kmh 29.77 in1008.1 mb 0.00 in0.0 mm 0.00 in0.0 mm 0.00 in0.0 mm
04:40 PM 75.6°F24.2°C 63.9°F17.7°C 67% 1.6 mph SSW2.6 kmh SSW 4.5 mph7.2 kmh 29.77 in1008.1 mb 0.00 in0.0 mm 0.00 in0.0 mm 0.00 in0.0 mm
04:50 PM 73.6°F23.1°C 64.0°F17.8°C 72% 2.2 mph SW3.5 kmh SW 4.5 mph7.2 kmh 29.78 in1008.5 mb 0.00 in0.0 mm 0.00 in0.0 mm 0.00 in0.0 mm
05:00 PM 71.4°F21.9°C 64.2°F17.9°C 78% 3.1 mph SSE5.0 kmh SSE 4.5 mph7.2 kmh 29.81 in1009.5 mb 0.00 in0.0 mm 0.00 in0.0 mm 0.00 in0.0 mm
05:10 PM 70.7°F21.5°C 64.6°F18.1°C 81% 2.2 mph E3.5 kmh E 5.4 mph8.7 kmh 29.83 in1010.2 mb 0.04 in1.0 mm 0.24 in6.1 mm 0.04 in1.0 mm
05:20 PM 69.4°F20.8°C 64.8°F18.2°C 85% Calm Calm 3.8 mph6.1 kmh 29.82 in1009.8 mb 0.45 in11.4 mm 2.46 in62.5 mm 0.45 in11.4 mm
05:30 PM 68.7°F20.4°C 64.7°F18.2°C 87% Calm Calm 2.2 mph3.5 kmh 29.83 in1010.2 mb 0.59 in15.0 mm 0.84 in21.3 mm 0.59 in15.0 mm
05:40 PM 68.0°F20.0°C 64.7°F18.2°C 89% Calm Calm 2.2 mph3.5 kmh 29.81 in1009.5 mb 1.23 in31.2 mm 3.84 in97.5 mm 1.23 in31.2 mm
05:50 PM 67.6°F19.8°C 65.3°F18.5°C 92% 1.6 mph SW2.6 kmh SW 2.2 mph3.5 kmh 29.82 in1009.8 mb 1.24 in31.5 mm 0.06 in1.5 mm 1.24 in31.5 mm
06:00 PM 67.5°F19.7°C 65.4°F18.6°C 93% 0.7 mph SW1.1 kmh SW 1.6 mph2.6 kmh 29.81 in1009.5 mb 1.24 in31.5 mm 0.00 in0.0 mm 1.24 in31.5 mm
06:10 PM 67.1°F19.5°C 65.3°F18.5°C 94% 0.7 mph SW1.1 kmh SW 2.2 mph3.5 kmh 29.85 in1010.8 mb 1.19 in30.2 mm 0.00 in0.0 mm 1.24 in31.5 mm
06:30 PM 66.7°F19.3°C 65.0°F18.3°C 94% Calm Calm -- 29.80 in1009.1 mb 0.40 in10.2 mm 0.00 in0.0 mm 1.63 in41.4 mm
06:40 PM 66.2°F19.0°C 64.4°F18.0°C 94% Calm Calm 0.7 mph1.1 kmh 29.82 in1009.8 mb 0.40 in10.2 mm 0.00 in0.0 mm 1.64 in41.7 mm
06:50 PM 65.8°F18.8°C 64.1°F17.8°C 94% Calm Calm 0.7 mph1.1 kmh 29.81 in1009.5 mb 0.40 in10.2 mm 0.00 in0.0 mm 1.64 in41.7 mm
07:00 PM 65.7°F18.7°C 63.9°F17.7°C 94% 0.7 mph SW1.1 kmh SW 1.6 mph2.6 kmh 29.81 in1009.5 mb 0.40 in10.2 mm 0.00 in0.0 mm 1.64 in41.7 mm
07:10 PM 65.8°F18.8°C 64.4°F18.0°C 95% Calm Calm 1.6 mph2.6 kmh 29.81 in1009.5 mb 0.02 in0.5 mm 0.00 in0.0 mm 1.65 in41.9 mm
07:20 PM 65.8°F18.8°C 64.4°F18.0°C 95% Calm Calm 0.7 mph1.1 kmh 29.84 in1010.5 mb 0.02 in0.5 mm 0.00 in0.0 mm 1.65 in41.9 mm
07:30 PM 65.8°F18.8°C 64.7°F18.2°C 96% 0.7 mph SW1.1 kmh SW 2.2 mph3.5 kmh 29.82 in1009.8 mb 0.04 in1.0 mm 0.12 in3.0 mm 1.67 in42.4 mm
07:40 PM 66.0°F18.9°C 65.2°F18.4°C 97% 1.6 mph SW2.6 kmh SW 2.2 mph3.5 kmh 29.82 in1009.8 mb 0.02 in0.5 mm 0.00 in0.0 mm 1.67 in42.4 mm
07:50 PM 65.8°F18.8°C 65.0°F18.3°C 97% 0.7 mph SW1.1 kmh SW 3.1 mph5.0 kmh 29.83 in1010.2 mb 0.04 in1.0 mm 0.12 in3.0 mm 1.68 in42.7 mm
08:00 PM 65.8°F18.8°C 65.3°F18.5°C 98% 0.7 mph SW1.1 kmh SW 2.2 mph3.5 kmh 29.83 in1010.2 mb 0.15 in3.8 mm 0.13 in3.3 mm 1.80 in45.7 mm
08:10 PM 65.8°F18.8°C 65.3°F18.5°C 98% 0.7 mph S1.1 kmh S 1.6 mph2.6 kmh 29.83 in1010.2 mb 0.19 in4.8 mm 0.24 in6.1 mm 1.84 in46.7 mm
08:20 PM 65.8°F18.8°C 65.3°F18.5°C 98% Calm Calm 1.6 mph2.6 kmh 29.83 in1010.2 mb 0.19 in4.8 mm 0.00 in0.0 mm 1.84 in46.7 mm
08:30 PM 66.0°F18.9°C 65.8°F18.8°C 99% Calm Calm 0.7 mph1.1 kmh 29.84 in1010.5 mb 0.19 in4.8 mm 0.00 in0.0 mm 1.85 in47.0 mm
08:40 PM 66.2°F19.0°C 65.9°F18.8°C 99% Calm Calm 1.6 mph2.6 kmh 29.82 in1009.8 mb 0.26 in6.6 mm 0.42 in10.7 mm 1.93 in49.0 mm
08:50 PM 66.2°F19.0°C 65.9°F18.8°C 99% Calm Calm 1.6 mph2.6 kmh 29.84 in1010.5 mb 0.25 in6.4 mm 0.00 in0.0 mm 1.93 in49.0 mm
09:00 PM 66.4°F19.1°C 66.1°F18.9°C 99% Calm Calm 1.6 mph2.6 kmh 29.83 in1010.2 mb 0.17 in4.3 mm 0.00 in0.0 mm 1.96 in49.8 mm
09:10 PM 66.6°F19.2°C 66.3°F19.1°C 99% Calm Calm 2.2 mph3.5 kmh 29.84 in1010.5 mb 0.14 in3.6 mm 0.00 in0.0 mm 1.98 in50.3 mm
09:20 PM 66.6°F19.2°C 66.3°F19.1°C 99% Calm Calm 0.7 mph1.1 kmh 29.84 in1010.5 mb 0.15 in3.8 mm 0.06 in1.5 mm 2.00 in50.8 mm
09:30 PM 66.6°F19.2°C 66.3°F19.1°C 99% Calm Calm 0.7 mph1.1 kmh 29.84 in1010.5 mb 0.15 in3.8 mm 0.00 in0.0 mm 2.01 in51.1 mm
09:40 PM 66.6°F19.2°C 66.3°F19.1°C 99% Calm Calm 2.2 mph3.5 kmh 29.84 in1010.5 mb 0.08 in2.0 mm 0.00 in0.0 mm 2.01 in51.1 mm
09:50 PM 66.6°F19.2°C 66.3°F19.1°C 99% Calm Calm 1.6 mph2.6 kmh 29.84 in1010.5 mb 0.08 in2.0 mm 0.00 in0.0 mm 2.01 in51.1 mm
10:00 PM 66.6°F19.2°C 66.3°F19.1°C 99% 1.6 mph WSW2.6 kmh WSW 2.2 mph3.5 kmh 29.85 in1010.8 mb 0.05 in1.3 mm 0.00 in0.0 mm 2.01 in51.1 mm
10:10 PM 66.6°F19.2°C 66.3°F19.1°C 99% 3.1 mph WNW5.0 kmh WNW 5.4 mph8.7 kmh 29.88 in1011.9 mb 0.02 in0.5 mm 0.00 in0.0 mm 2.01 in51.1 mm
10:20 PM 66.6°F19.2°C 66.3°F19.1°C 99% 2.2 mph ESE3.5 kmh ESE 5.4 mph8.7 kmh 29.89 in1012.2 mb 0.41 in10.4 mm 2.34 in59.4 mm 2.41 in61.2 mm
10:30 PM 66.0°F18.9°C 65.8°F18.8°C 99% 0.7 mph SW1.1 kmh SW 5.4 mph8.7 kmh 29.88 in1011.9 mb 1.04 in26.4 mm 3.78 in96.0 mm 3.05 in77.5 mm
10:40 PM 65.7°F18.7°C 65.4°F18.6°C 99% 1.6 mph NNE2.6 kmh NNE 3.1 mph5.0 kmh 29.86 in1011.2 mb 1.13 in28.7 mm 0.54 in13.7 mm 3.14 in79.8 mm
10:50 PM 65.7°F18.7°C 65.4°F18.6°C 99% 1.6 mph WSW2.6 kmh WSW 3.1 mph5.0 kmh 29.86 in1011.2 mb 1.24 in31.5 mm 0.66 in16.8 mm 3.25 in82.6 mm
11:00 PM 65.5°F18.6°C 65.2°F18.4°C 99% 2.2 mph S3.5 kmh S 3.1 mph5.0 kmh 29.84 in1010.5 mb 1.29 in32.8 mm 0.06 in1.5 mm 2.78 in70.6 mm
11:10 PM 65.3°F18.5°C 65.0°F18.3°C 99% 1.6 mph SW2.6 kmh SW 3.1 mph5.0 kmh 29.86 in1011.2 mb 1.29 in32.8 mm 0.00 in0.0 mm 2.78 in70.6 mm
11:20 PM 65.5°F18.6°C 65.2°F18.4°C 99% 0.7 mph SSW1.1 kmh SSW 2.2 mph3.5 kmh 29.86 in1011.2 mb 0.89 in22.6 mm 0.00 in0.0 mm 2.78 in70.6 mm
11:30 PM 65.5°F18.6°C 65.2°F18.4°C 99% 1.6 mph W2.6 kmh W 3.1 mph5.0 kmh 29.86 in1011.2 mb 0.24 in6.1 mm 0.00 in0.0 mm 0.01 in0.3 mm
11:40 PM 65.1°F18.4°C 64.9°F18.3°C 99% 0.7 mph S1.1 kmh S 2.2 mph3.5 kmh 29.87 in1011.5 mb 0.17 in4.3 mm 0.00 in0.0 mm 0.01 in0.3 mm
11:50 PM 64.8°F18.2°C 64.5°F18.1°C 99% 0.7 mph SW1.1 kmh SW 3.1 mph5.0 kmh 29.87 in1011.5 mb 0.06 in1.5 mm 0.00 in0.0 mm 0.01 in0.3 mm